sensor_id;sensor_type;location;lat;lon;timestamp;temperature;humidity
6270;DHT22;3168;51.684;6.954;2023-12-20T00:00:18;7.30;1.00
6270;DHT22;3168;51.684;6.954;2023-12-20T00:02:44;7.30;1.00
6270;DHT22;3168;51.684;6.954;2023-12-20T00:05:10;7.20;1.00
6270;DHT22;3168;51.684;6.954;2023-12-20T00:07:36;7.20;1.00
6270;DHT22;3168;51.684;6.954;2023-12-20T00:10:04;7.20;1.00
6270;DHT22;3168;51.684;6.954;2023-12-20T00:12:31;7.10;1.00
6270;DHT22;3168;51.684;6.954;2023-12-20T00:14:57;7.00;1.00
6270;DHT22;3168;51.684;6.954;2023-12-20T00:17:23;7.00;1.00
6270;DHT22;3168;51.684;6.954;2023-12-20T00:19:49;6.90;1.00
6270;DHT22;3168;51.684;6.954;2023-12-20T00:22:15;6.80;1.00
6270;DHT22;3168;51.684;6.954;2023-12-20T00:24:41;6.80;1.00
6270;DHT22;3168;51.684;6.954;2023-12-20T00:27:07;6.70;1.00
6270;DHT22;3168;51.684;6.954;2023-12-20T00:29:33;6.70;1.00
6270;DHT22;3168;51.684;6.954;2023-12-20T00:31:59;6.60;1.00
6270;DHT22;3168;51.684;6.954;2023-12-20T00:34:25;6.50;1.00
6270;DHT22;3168;51.684;6.954;2023-12-20T00:36:58;6.60;1.00
6270;DHT22;3168;51.684;6.954;2023-12-20T00:39:24;6.60;1.00
6270;DHT22;3168;51.684;6.954;2023-12-20T00:41:50;6.60;1.00
6270;DHT22;3168;51.684;6.954;2023-12-20T00:44:16;6.50;1.00
6270;DHT22;3168;51.684;6.954;2023-12-20T00:46:42;6.60;1.00
6270;DHT22;3168;51.684;6.954;2023-12-20T00:49:08;6.60;1.00
6270;DHT22;3168;51.684;6.954;2023-12-20T00:51:34;6.60;1.00
6270;DHT22;3168;51.684;6.954;2023-12-20T00:54:00;6.60;1.00
6270;DHT22;3168;51.684;6.954;2023-12-20T00:56:26;6.50;1.00
6270;DHT22;3168;51.684;6.954;2023-12-20T00:58:52;6.60;1.00
6270;DHT22;3168;51.684;6.954;2023-12-20T01:01:18;6.60;1.00
6270;DHT22;3168;51.684;6.954;2023-12-20T01:03:44;6.50;1.00
6270;DHT22;3168;51.684;6.954;2023-12-20T01:06:10;6.50;1.00
6270;DHT22;3168;51.684;6.954;2023-12-20T01:08:37;6.50;1.00
6270;DHT22;3168;51.684;6.954;2023-12-20T01:11:04;6.50;1.00
6270;DHT22;3168;51.684;6.954;2023-12-20T01:13:30;6.50;1.00
6270;DHT22;3168;51.684;6.954;2023-12-20T01:15:56;6.50;1.00
6270;DHT22;3168;51.684;6.954;2023-12-20T01:18:22;6.40;1.00
6270;DHT22;3168;51.684;6.954;2023-12-20T01:20:48;6.40;1.00
6270;DHT22;3168;51.684;6.954;2023-12-20T01:23:14;6.30;1.00
6270;DHT22;3168;51.684;6.954;2023-12-20T01:25:40;6.30;1.00
6270;DHT22;3168;51.684;6.954;2023-12-20T01:28:06;6.30;1.00
6270;DHT22;3168;51.684;6.954;2023-12-20T01:30:32;6.30;1.00
6270;DHT22;3168;51.684;6.954;2023-12-20T01:32:59;6.30;1.00
6270;DHT22;3168;51.684;6.954;2023-12-20T01:35:24;6.30;1.00
6270;DHT22;3168;51.684;6.954;2023-12-20T01:37:50;6.30;1.00
6270;DHT22;3168;51.684;6.954;2023-12-20T01:40:16;6.30;1.00
6270;DHT22;3168;51.684;6.954;2023-12-20T01:42:42;6.30;1.00
6270;DHT22;3168;51.684;6.954;2023-12-20T01:45:08;6.40;1.00
6270;DHT22;3168;51.684;6.954;2023-12-20T01:47:34;6.30;1.00
6270;DHT22;3168;51.684;6.954;2023-12-20T01:50:00;6.30;1.00
6270;DHT22;3168;51.684;6.954;2023-12-20T01:52:26;6.30;1.00
6270;DHT22;3168;51.684;6.954;2023-12-20T01:54:53;6.20;1.00
6270;DHT22;3168;51.684;6.954;2023-12-20T01:57:19;6.20;1.00
6270;DHT22;3168;51.684;6.954;2023-12-20T01:59:45;6.20;1.00
6270;DHT22;3168;51.684;6.954;2023-12-20T02:02:11;6.20;1.00
6270;DHT22;3168;51.684;6.954;2023-12-20T02:04:38;6.10;1.00
6270;DHT22;3168;51.684;6.954;2023-12-20T02:07:04;6.10;1.00
6270;DHT22;3168;51.684;6.954;2023-12-20T02:09:30;6.00;1.00
6270;DHT22;3168;51.684;6.954;2023-12-20T02:11:57;6.00;1.00
6270;DHT22;3168;51.684;6.954;2023-12-20T02:14:22;6.10;1.00
6270;DHT22;3168;51.684;6.954;2023-12-20T02:16:48;6.10;1.00
6270;DHT22;3168;51.684;6.954;2023-12-20T02:19:15;6.10;1.00
6270;DHT22;3168;51.684;6.954;2023-12-20T02:21:41;6.10;1.00
6270;DHT22;3168;51.684;6.954;2023-12-20T02:24:07;6.00;1.00
6270;DHT22;3168;51.684;6.954;2023-12-20T02:26:33;5.90;1.00
6270;DHT22;3168;51.684;6.954;2023-12-20T02:28:59;5.90;1.00
6270;DHT22;3168;51.684;6.954;2023-12-20T02:31:25;5.90;1.00
6270;DHT22;3168;51.684;6.954;2023-12-20T02:33:51;5.90;1.00
6270;DHT22;3168;51.684;6.954;2023-12-20T02:36:17;5.90;1.00
6270;DHT22;3168;51.684;6.954;2023-12-20T02:38:43;5.80;1.00
6270;DHT22;3168;51.684;6.954;2023-12-20T02:41:09;5.80;1.00
6270;DHT22;3168;51.684;6.954;2023-12-20T02:43:35;5.80;1.00
6270;DHT22;3168;51.684;6.954;2023-12-20T02:46:01;5.70;1.00
6270;DHT22;3168;51.684;6.954;2023-12-20T02:48:27;5.70;1.00
6270;DHT22;3168;51.684;6.954;2023-12-20T02:50:53;5.70;1.00
6270;DHT22;3168;51.684;6.954;2023-12-20T02:53:19;5.70;1.00
6270;DHT22;3168;51.684;6.954;2023-12-20T02:55:45;5.80;1.00
6270;DHT22;3168;51.684;6.954;2023-12-20T02:58:12;5.70;1.00
6270;DHT22;3168;51.684;6.954;2023-12-20T03:00:38;5.70;1.00
6270;DHT22;3168;51.684;6.954;2023-12-20T03:03:04;5.70;1.00
6270;DHT22;3168;51.684;6.954;2023-12-20T03:05:30;5.70;1.00
6270;DHT22;3168;51.684;6.954;2023-12-20T03:07:56;5.80;1.00
6270;DHT22;3168;51.684;6.954;2023-12-20T03:10:22;5.70;1.00
6270;DHT22;3168;51.684;6.954;2023-12-20T03:12:48;5.70;1.00
6270;DHT22;3168;51.684;6.954;2023-12-20T03:15:14;5.80;1.00
6270;DHT22;3168;51.684;6.954;2023-12-20T03:17:41;5.70;1.00
6270;DHT22;3168;51.684;6.954;2023-12-20T03:20:08;5.70;1.00
6270;DHT22;3168;51.684;6.954;2023-12-20T03:22:34;5.70;1.00
6270;DHT22;3168;51.684;6.954;2023-12-20T03:25:00;5.70;1.00
6270;DHT22;3168;51.684;6.954;2023-12-20T03:27:26;5.70;1.00
6270;DHT22;3168;51.684;6.954;2023-12-20T03:29:52;5.70;1.00
6270;DHT22;3168;51.684;6.954;2023-12-20T03:32:18;5.70;1.00
6270;DHT22;3168;51.684;6.954;2023-12-20T03:34:44;5.60;1.00
6270;DHT22;3168;51.684;6.954;2023-12-20T03:37:10;5.60;1.00
6270;DHT22;3168;51.684;6.954;2023-12-20T03:39:36;5.60;1.00
6270;DHT22;3168;51.684;6.954;2023-12-20T03:42:03;5.50;1.00
6270;DHT22;3168;51.684;6.954;2023-12-20T03:44:29;5.50;1.00
6270;DHT22;3168;51.684;6.954;2023-12-20T03:46:55;5.50;1.00
6270;DHT22;3168;51.684;6.954;2023-12-20T03:49:22;5.50;1.00
6270;DHT22;3168;51.684;6.954;2023-12-20T03:51:48;5.50;1.00
6270;DHT22;3168;51.684;6.954;2023-12-20T03:54:14;5.50;1.00
6270;DHT22;3168;51.684;6.954;2023-12-20T03:56:40;5.40;1.00
6270;DHT22;3168;51.684;6.954;2023-12-20T03:59:06;5.50;1.00
6270;DHT22;3168;51.684;6.954;2023-12-20T04:01:32;5.40;1.00
6270;DHT22;3168;51.684;6.954;2023-12-20T04:03:58;5.40;1.00
6270;DHT22;3168;51.684;6.954;2023-12-20T04:06:24;5.50;1.00
6270;DHT22;3168;51.684;6.954;2023-12-20T04:08:50;5.50;1.00
6270;DHT22;3168;51.684;6.954;2023-12-20T04:11:16;5.40;1.00
6270;DHT22;3168;51.684;6.954;2023-12-20T04:13:42;5.40;1.00
6270;DHT22;3168;51.684;6.954;2023-12-20T04:16:08;5.40;1.00
6270;DHT22;3168;51.684;6.954;2023-12-20T04:18:34;5.40;1.00
6270;DHT22;3168;51.684;6.954;2023-12-20T04:21:00;5.50;1.00
6270;DHT22;3168;51.684;6.954;2023-12-20T04:23:26;5.50;1.00
6270;DHT22;3168;51.684;6.954;2023-12-20T04:25:53;5.50;1.00
6270;DHT22;3168;51.684;6.954;2023-12-20T04:28:18;5.50;1.00
6270;DHT22;3168;51.684;6.954;2023-12-20T04:30:44;5.50;1.00
6270;DHT22;3168;51.684;6.954;2023-12-20T04:33:10;5.60;1.00
6270;DHT22;3168;51.684;6.954;2023-12-20T04:35:37;5.50;1.00
6270;DHT22;3168;51.684;6.954;2023-12-20T04:38:03;5.60;1.00
6270;DHT22;3168;51.684;6.954;2023-12-20T04:40:29;5.50;1.00
6270;DHT22;3168;51.684;6.954;2023-12-20T04:42:55;5.50;1.00
6270;DHT22;3168;51.684;6.954;2023-12-20T04:45:21;5.50;1.00
6270;DHT22;3168;51.684;6.954;2023-12-20T04:47:47;5.50;1.00
6270;DHT22;3168;51.684;6.954;2023-12-20T04:50:14;5.40;1.00
6270;DHT22;3168;51.684;6.954;2023-12-20T04:52:41;5.40;1.00
6270;DHT22;3168;51.684;6.954;2023-12-20T04:55:07;5.40;1.00
6270;DHT22;3168;51.684;6.954;2023-12-20T04:57:33;5.50;1.00
6270;DHT22;3168;51.684;6.954;2023-12-20T04:59:59;5.40;1.00
6270;DHT22;3168;51.684;6.954;2023-12-20T05:02:25;5.40;1.00
6270;DHT22;3168;51.684;6.954;2023-12-20T05:04:51;5.50;1.00
6270;DHT22;3168;51.684;6.954;2023-12-20T05:07:18;5.50;1.00
6270;DHT22;3168;51.684;6.954;2023-12-20T05:09:44;5.50;1.00
6270;DHT22;3168;51.684;6.954;2023-12-20T05:12:10;5.40;1.00
6270;DHT22;3168;51.684;6.954;2023-12-20T05:14:35;5.50;1.00
6270;DHT22;3168;51.684;6.954;2023-12-20T05:17:02;5.50;1.00
6270;DHT22;3168;51.684;6.954;2023-12-20T05:19:28;5.40;1.00
6270;DHT22;3168;51.684;6.954;2023-12-20T05:21:54;5.40;1.00
6270;DHT22;3168;51.684;6.954;2023-12-20T05:24:20;5.50;1.00
6270;DHT22;3168;51.684;6.954;2023-12-20T05:26:46;5.50;1.00
6270;DHT22;3168;51.684;6.954;2023-12-20T05:29:12;5.50;1.00
6270;DHT22;3168;51.684;6.954;2023-12-20T05:31:38;5.40;1.00
6270;DHT22;3168;51.684;6.954;2023-12-20T05:34:04;5.60;1.00
6270;DHT22;3168;51.684;6.954;2023-12-20T05:36:30;5.60;1.00
6270;DHT22;3168;51.684;6.954;2023-12-20T05:38:56;5.60;1.00
6270;DHT22;3168;51.684;6.954;2023-12-20T05:41:22;5.50;1.00
6270;DHT22;3168;51.684;6.954;2023-12-20T05:43:48;5.50;1.00
6270;DHT22;3168;51.684;6.954;2023-12-20T05:46:14;5.50;1.00
6270;DHT22;3168;51.684;6.954;2023-12-20T05:48:40;5.60;1.00
6270;DHT22;3168;51.684;6.954;2023-12-20T05:51:07;5.70;1.00
6270;DHT22;3168;51.684;6.954;2023-12-20T05:53:33;5.70;1.00
6270;DHT22;3168;51.684;6.954;2023-12-20T05:55:59;5.70;1.00
6270;DHT22;3168;51.684;6.954;2023-12-20T05:58:25;5.70;1.00
6270;DHT22;3168;51.684;6.954;2023-12-20T06:00:51;5.70;1.00
6270;DHT22;3168;51.684;6.954;2023-12-20T06:03:17;5.70;1.00
6270;DHT22;3168;51.684;6.954;2023-12-20T06:05:43;5.80;1.00
6270;DHT22;3168;51.684;6.954;2023-12-20T06:08:10;5.80;1.00
6270;DHT22;3168;51.684;6.954;2023-12-20T06:10:35;5.80;1.00
6270;DHT22;3168;51.684;6.954;2023-12-20T06:13:02;5.80;1.00
6270;DHT22;3168;51.684;6.954;2023-12-20T06:15:28;5.80;1.00
6270;DHT22;3168;51.684;6.954;2023-12-20T06:17:54;5.90;1.00
6270;DHT22;3168;51.684;6.954;2023-12-20T06:20:20;5.90;1.00
6270;DHT22;3168;51.684;6.954;2023-12-20T06:22:46;5.90;1.00
6270;DHT22;3168;51.684;6.954;2023-12-20T06:25:13;5.90;1.00
6270;DHT22;3168;51.684;6.954;2023-12-20T06:27:39;5.90;1.00
6270;DHT22;3168;51.684;6.954;2023-12-20T06:30:06;5.90;1.00
6270;DHT22;3168;51.684;6.954;2023-12-20T06:32:32;6.00;1.00
6270;DHT22;3168;51.684;6.954;2023-12-20T06:34:59;6.00;1.00
6270;DHT22;3168;51.684;6.954;2023-12-20T06:37:25;6.00;1.00
6270;DHT22;3168;51.684;6.954;2023-12-20T06:39:51;6.00;1.00
6270;DHT22;3168;51.684;6.954;2023-12-20T06:42:17;6.00;1.00
6270;DHT22;3168;51.684;6.954;2023-12-20T06:44:43;6.00;1.00
6270;DHT22;3168;51.684;6.954;2023-12-20T06:47:09;6.00;1.00
6270;DHT22;3168;51.684;6.954;2023-12-20T06:49:35;6.10;1.00
6270;DHT22;3168;51.684;6.954;2023-12-20T06:52:01;6.10;1.00
6270;DHT22;3168;51.684;6.954;2023-12-20T06:54:27;6.10;1.00
6270;DHT22;3168;51.684;6.954;2023-12-20T06:56:53;6.10;1.00
6270;DHT22;3168;51.684;6.954;2023-12-20T06:59:19;6.10;1.00
6270;DHT22;3168;51.684;6.954;2023-12-20T07:01:47;6.10;1.00
6270;DHT22;3168;51.684;6.954;2023-12-20T07:04:13;6.10;1.00
6270;DHT22;3168;51.684;6.954;2023-12-20T07:06:40;6.10;1.00
6270;DHT22;3168;51.684;6.954;2023-12-20T07:09:06;6.10;1.00
6270;DHT22;3168;51.684;6.954;2023-12-20T07:11:32;6.10;1.00
6270;DHT22;3168;51.684;6.954;2023-12-20T07:13:58;6.20;1.00
6270;DHT22;3168;51.684;6.954;2023-12-20T07:16:24;6.20;1.00
6270;DHT22;3168;51.684;6.954;2023-12-20T07:18:50;6.20;1.00
6270;DHT22;3168;51.684;6.954;2023-12-20T07:21:17;6.20;1.00
6270;DHT22;3168;51.684;6.954;2023-12-20T07:23:43;6.20;1.00
6270;DHT22;3168;51.684;6.954;2023-12-20T07:26:10;6.20;1.00
6270;DHT22;3168;51.684;6.954;2023-12-20T07:28:36;6.20;1.00
6270;DHT22;3168;51.684;6.954;2023-12-20T07:31:02;6.20;1.00
6270;DHT22;3168;51.684;6.954;2023-12-20T07:33:28;6.30;1.00
6270;DHT22;3168;51.684;6.954;2023-12-20T07:35:54;6.30;1.00
6270;DHT22;3168;51.684;6.954;2023-12-20T07:38:21;6.30;1.00
6270;DHT22;3168;51.684;6.954;2023-12-20T07:40:47;6.30;1.00
6270;DHT22;3168;51.684;6.954;2023-12-20T07:43:13;6.30;1.00
6270;DHT22;3168;51.684;6.954;2023-12-20T07:45:40;6.40;1.00
6270;DHT22;3168;51.684;6.954;2023-12-20T07:48:07;6.40;1.00
6270;DHT22;3168;51.684;6.954;2023-12-20T07:50:33;6.40;1.00
6270;DHT22;3168;51.684;6.954;2023-12-20T07:52:59;6.40;99.90
6270;DHT22;3168;51.684;6.954;2023-12-20T07:55:26;6.40;99.90
6270;DHT22;3168;51.684;6.954;2023-12-20T07:57:52;6.40;99.90
6270;DHT22;3168;51.684;6.954;2023-12-20T08:00:18;6.40;99.90
6270;DHT22;3168;51.684;6.954;2023-12-20T08:02:45;6.50;99.90
6270;DHT22;3168;51.684;6.954;2023-12-20T08:05:10;6.50;99.90
6270;DHT22;3168;51.684;6.954;2023-12-20T08:07:37;6.50;99.90
6270;DHT22;3168;51.684;6.954;2023-12-20T08:10:03;6.50;99.90
6270;DHT22;3168;51.684;6.954;2023-12-20T08:12:29;6.50;99.90
6270;DHT22;3168;51.684;6.954;2023-12-20T08:14:56;6.60;99.90
6270;DHT22;3168;51.684;6.954;2023-12-20T08:17:21;6.60;99.90
6270;DHT22;3168;51.684;6.954;2023-12-20T08:19:47;6.60;99.90
6270;DHT22;3168;51.684;6.954;2023-12-20T08:22:13;6.60;99.90
6270;DHT22;3168;51.684;6.954;2023-12-20T08:24:39;6.60;99.90
6270;DHT22;3168;51.684;6.954;2023-12-20T08:27:05;6.60;99.90
6270;DHT22;3168;51.684;6.954;2023-12-20T08:29:31;6.70;99.90
6270;DHT22;3168;51.684;6.954;2023-12-20T08:31:57;6.70;99.90
6270;DHT22;3168;51.684;6.954;2023-12-20T08:34:23;6.70;99.90
6270;DHT22;3168;51.684;6.954;2023-12-20T08:36:50;6.70;99.90
6270;DHT22;3168;51.684;6.954;2023-12-20T08:39:16;6.70;99.90
6270;DHT22;3168;51.684;6.954;2023-12-20T08:41:42;6.70;99.90
6270;DHT22;3168;51.684;6.954;2023-12-20T08:44:08;6.70;99.90
6270;DHT22;3168;51.684;6.954;2023-12-20T08:46:34;6.70;99.90
6270;DHT22;3168;51.684;6.954;2023-12-20T08:49:00;6.80;99.90
6270;DHT22;3168;51.684;6.954;2023-12-20T08:51:27;6.80;99.90
6270;DHT22;3168;51.684;6.954;2023-12-20T08:53:53;6.80;99.90
6270;DHT22;3168;51.684;6.954;2023-12-20T08:56:19;6.70;99.90
6270;DHT22;3168;51.684;6.954;2023-12-20T08:58:46;6.80;99.90
6270;DHT22;3168;51.684;6.954;2023-12-20T09:01:13;6.80;99.90
6270;DHT22;3168;51.684;6.954;2023-12-20T09:03:39;6.70;99.90
6270;DHT22;3168;51.684;6.954;2023-12-20T09:06:05;6.80;99.90
6270;DHT22;3168;51.684;6.954;2023-12-20T09:08:31;6.80;99.90
6270;DHT22;3168;51.684;6.954;2023-12-20T09:10:57;6.80;99.90
6270;DHT22;3168;51.684;6.954;2023-12-20T09:13:23;6.70;99.90
6270;DHT22;3168;51.684;6.954;2023-12-20T09:15:50;6.80;99.90
6270;DHT22;3168;51.684;6.954;2023-12-20T09:18:16;6.70;99.90
6270;DHT22;3168;51.684;6.954;2023-12-20T09:20:42;6.80;99.90
6270;DHT22;3168;51.684;6.954;2023-12-20T09:23:08;6.80;99.90
6270;DHT22;3168;51.684;6.954;2023-12-20T09:25:34;6.80;99.90
6270;DHT22;3168;51.684;6.954;2023-12-20T09:28:00;6.80;99.90
6270;DHT22;3168;51.684;6.954;2023-12-20T09:30:26;6.80;99.90
6270;DHT22;3168;51.684;6.954;2023-12-20T09:32:53;6.80;99.90
6270;DHT22;3168;51.684;6.954;2023-12-20T09:35:19;6.80;99.90
6270;DHT22;3168;51.684;6.954;2023-12-20T09:37:45;6.80;99.90
6270;DHT22;3168;51.684;6.954;2023-12-20T09:40:12;6.80;99.90
6270;DHT22;3168;51.684;6.954;2023-12-20T09:42:48;6.80;99.90
6270;DHT22;3168;51.684;6.954;2023-12-20T09:45:08;6.80;99.90
6270;DHT22;3168;51.684;6.954;2023-12-20T09:47:32;6.80;99.90
6270;DHT22;3168;51.684;6.954;2023-12-20T09:49:58;6.80;99.90
6270;DHT22;3168;51.684;6.954;2023-12-20T09:52:24;6.80;99.90
6270;DHT22;3168;51.684;6.954;2023-12-20T09:54:50;6.80;99.90
6270;DHT22;3168;51.684;6.954;2023-12-20T09:57:16;6.80;99.90
6270;DHT22;3168;51.684;6.954;2023-12-20T09:59:42;6.80;99.90
6270;DHT22;3168;51.684;6.954;2023-12-20T10:02:09;6.80;99.90
6270;DHT22;3168;51.684;6.954;2023-12-20T10:04:34;6.80;99.90
6270;DHT22;3168;51.684;6.954;2023-12-20T10:07:02;6.80;99.90
6270;DHT22;3168;51.684;6.954;2023-12-20T10:09:29;6.80;99.90
6270;DHT22;3168;51.684;6.954;2023-12-20T10:11:55;6.80;99.90
6270;DHT22;3168;51.684;6.954;2023-12-20T10:14:21;6.80;99.90
6270;DHT22;3168;51.684;6.954;2023-12-20T10:16:47;6.80;99.90
6270;DHT22;3168;51.684;6.954;2023-12-20T10:19:15;6.80;99.90
6270;DHT22;3168;51.684;6.954;2023-12-20T10:21:39;6.80;99.90
6270;DHT22;3168;51.684;6.954;2023-12-20T10:24:06;6.80;99.90
6270;DHT22;3168;51.684;6.954;2023-12-20T10:26:33;6.80;99.90
6270;DHT22;3168;51.684;6.954;2023-12-20T10:29:00;6.80;99.90
6270;DHT22;3168;51.684;6.954;2023-12-20T10:31:34;6.80;99.90
6270;DHT22;3168;51.684;6.954;2023-12-20T10:34:01;6.80;99.90
6270;DHT22;3168;51.684;6.954;2023-12-20T10:36:28;6.70;99.90
6270;DHT22;3168;51.684;6.954;2023-12-20T10:38:53;6.80;99.90
6270;DHT22;3168;51.684;6.954;2023-12-20T10:41:20;6.80;99.90
6270;DHT22;3168;51.684;6.954;2023-12-20T10:43:45;6.90;99.90
6270;DHT22;3168;51.684;6.954;2023-12-20T10:46:11;6.90;99.90
6270;DHT22;3168;51.684;6.954;2023-12-20T10:48:37;6.90;99.90
6270;DHT22;3168;51.684;6.954;2023-12-20T10:51:04;6.90;99.90
6270;DHT22;3168;51.684;6.954;2023-12-20T10:53:30;7.00;99.90
6270;DHT22;3168;51.684;6.954;2023-12-20T10:55:56;7.00;99.90
6270;DHT22;3168;51.684;6.954;2023-12-20T10:58:22;7.10;99.90
6270;DHT22;3168;51.684;6.954;2023-12-20T11:00:48;7.20;99.90
6270;DHT22;3168;51.684;6.954;2023-12-20T11:03:14;7.20;99.90
6270;DHT22;3168;51.684;6.954;2023-12-20T11:05:44;7.30;99.90
6270;DHT22;3168;51.684;6.954;2023-12-20T11:08:13;7.20;99.90
6270;DHT22;3168;51.684;6.954;2023-12-20T11:10:51;7.20;99.90
6270;DHT22;3168;51.684;6.954;2023-12-20T11:13:21;7.20;99.90
6270;DHT22;3168;51.684;6.954;2023-12-20T11:15:46;7.10;99.90
6270;DHT22;3168;51.684;6.954;2023-12-20T11:18:12;7.10;99.90
6270;DHT22;3168;51.684;6.954;2023-12-20T11:20:38;7.10;99.90
6270;DHT22;3168;51.684;6.954;2023-12-20T11:23:04;7.10;99.90
6270;DHT22;3168;51.684;6.954;2023-12-20T11:25:30;7.10;99.90
6270;DHT22;3168;51.684;6.954;2023-12-20T11:28:06;7.00;99.90
6270;DHT22;3168;51.684;6.954;2023-12-20T11:30:28;7.10;99.90
6270;DHT22;3168;51.684;6.954;2023-12-20T11:32:54;7.00;99.90
6270;DHT22;3168;51.684;6.954;2023-12-20T11:35:21;7.00;1.00
6270;DHT22;3168;51.684;6.954;2023-12-20T11:37:47;7.00;1.00
6270;DHT22;3168;51.684;6.954;2023-12-20T11:40:15;7.00;1.00
6270;DHT22;3168;51.684;6.954;2023-12-20T11:42:41;7.00;1.00
6270;DHT22;3168;51.684;6.954;2023-12-20T11:45:11;7.00;1.00
6270;DHT22;3168;51.684;6.954;2023-12-20T11:47:37;7.00;1.00
6270;DHT22;3168;51.684;6.954;2023-12-20T11:50:03;7.00;1.00
6270;DHT22;3168;51.684;6.954;2023-12-20T11:52:29;7.00;1.00
6270;DHT22;3168;51.684;6.954;2023-12-20T11:54:55;7.00;1.00
6270;DHT22;3168;51.684;6.954;2023-12-20T11:57:21;7.00;1.00
6270;DHT22;3168;51.684;6.954;2023-12-20T11:59:47;7.00;1.00
6270;DHT22;3168;51.684;6.954;2023-12-20T12:02:13;7.00;1.00
6270;DHT22;3168;51.684;6.954;2023-12-20T12:04:42;7.00;1.00
6270;DHT22;3168;51.684;6.954;2023-12-20T12:07:08;7.10;1.00
6270;DHT22;3168;51.684;6.954;2023-12-20T12:09:34;7.20;1.00
6270;DHT22;3168;51.684;6.954;2023-12-20T12:12:00;7.10;1.00
6270;DHT22;3168;51.684;6.954;2023-12-20T12:14:26;7.20;1.00
6270;DHT22;3168;51.684;6.954;2023-12-20T12:16:52;7.20;1.00
6270;DHT22;3168;51.684;6.954;2023-12-20T12:19:20;7.30;1.00
6270;DHT22;3168;51.684;6.954;2023-12-20T12:21:46;7.30;1.00
6270;DHT22;3168;51.684;6.954;2023-12-20T12:24:12;7.40;1.00
6270;DHT22;3168;51.684;6.954;2023-12-20T12:26:39;7.40;1.00
6270;DHT22;3168;51.684;6.954;2023-12-20T12:29:07;7.40;1.00
6270;DHT22;3168;51.684;6.954;2023-12-20T12:31:33;7.40;1.00
6270;DHT22;3168;51.684;6.954;2023-12-20T12:33:59;7.40;99.90
6270;DHT22;3168;51.684;6.954;2023-12-20T12:36:25;7.40;99.90
6270;DHT22;3168;51.684;6.954;2023-12-20T12:38:51;7.40;99.90
6270;DHT22;3168;51.684;6.954;2023-12-20T12:41:17;7.40;99.90
6270;DHT22;3168;51.684;6.954;2023-12-20T12:43:43;7.50;99.90
6270;DHT22;3168;51.684;6.954;2023-12-20T12:46:10;7.40;99.90
6270;DHT22;3168;51.684;6.954;2023-12-20T12:48:36;7.40;99.90
6270;DHT22;3168;51.684;6.954;2023-12-20T12:51:02;7.50;99.90
6270;DHT22;3168;51.684;6.954;2023-12-20T12:53:28;7.50;99.90
6270;DHT22;3168;51.684;6.954;2023-12-20T12:55:54;7.60;99.90
6270;DHT22;3168;51.684;6.954;2023-12-20T12:58:20;7.60;99.90
6270;DHT22;3168;51.684;6.954;2023-12-20T13:00:46;7.60;99.90
6270;DHT22;3168;51.684;6.954;2023-12-20T13:03:12;7.60;99.90
6270;DHT22;3168;51.684;6.954;2023-12-20T13:05:38;7.60;99.90
6270;DHT22;3168;51.684;6.954;2023-12-20T13:08:06;7.70;99.90
6270;DHT22;3168;51.684;6.954;2023-12-20T13:10:32;7.70;99.90
6270;DHT22;3168;51.684;6.954;2023-12-20T13:12:58;7.70;99.90
6270;DHT22;3168;51.684;6.954;2023-12-20T13:15:24;7.60;99.90
6270;DHT22;3168;51.684;6.954;2023-12-20T13:17:50;7.60;99.90
6270;DHT22;3168;51.684;6.954;2023-12-20T13:20:16;7.50;99.90
6270;DHT22;3168;51.684;6.954;2023-12-20T13:22:42;7.50;99.90
6270;DHT22;3168;51.684;6.954;2023-12-20T13:25:08;7.40;99.90
6270;DHT22;3168;51.684;6.954;2023-12-20T13:27:34;7.40;99.90
6270;DHT22;3168;51.684;6.954;2023-12-20T13:30:00;7.40;99.90
6270;DHT22;3168;51.684;6.954;2023-12-20T13:32:26;7.40;99.90
6270;DHT22;3168;51.684;6.954;2023-12-20T13:34:52;7.40;99.90
6270;DHT22;3168;51.684;6.954;2023-12-20T13:37:18;7.40;99.90
6270;DHT22;3168;51.684;6.954;2023-12-20T13:39:44;7.30;99.90
6270;DHT22;3168;51.684;6.954;2023-12-20T13:42:10;7.40;99.90
6270;DHT22;3168;51.684;6.954;2023-12-20T13:44:37;7.40;99.90
6270;DHT22;3168;51.684;6.954;2023-12-20T13:47:03;7.40;99.90
6270;DHT22;3168;51.684;6.954;2023-12-20T13:49:29;7.40;99.90
6270;DHT22;3168;51.684;6.954;2023-12-20T13:51:55;7.40;99.90
6270;DHT22;3168;51.684;6.954;2023-12-20T13:54:22;7.40;99.90
6270;DHT22;3168;51.684;6.954;2023-12-20T13:56:48;7.40;99.90
6270;DHT22;3168;51.684;6.954;2023-12-20T13:59:14;7.40;99.90
6270;DHT22;3168;51.684;6.954;2023-12-20T14:01:40;7.30;99.90
6270;DHT22;3168;51.684;6.954;2023-12-20T14:04:06;7.30;99.90
6270;DHT22;3168;51.684;6.954;2023-12-20T14:06:33;7.30;1.00
6270;DHT22;3168;51.684;6.954;2023-12-20T14:08:59;7.30;1.00
6270;DHT22;3168;51.684;6.954;2023-12-20T14:11:26;7.30;1.00
6270;DHT22;3168;51.684;6.954;2023-12-20T14:13:52;7.30;1.00
6270;DHT22;3168;51.684;6.954;2023-12-20T14:16:18;7.30;1.00
6270;DHT22;3168;51.684;6.954;2023-12-20T14:18:44;7.30;1.00
6270;DHT22;3168;51.684;6.954;2023-12-20T14:21:10;7.30;1.00
6270;DHT22;3168;51.684;6.954;2023-12-20T14:23:37;7.30;99.90
6270;DHT22;3168;51.684;6.954;2023-12-20T14:26:03;7.30;99.90
6270;DHT22;3168;51.684;6.954;2023-12-20T14:28:29;7.40;99.90
6270;DHT22;3168;51.684;6.954;2023-12-20T14:30:55;7.40;99.90
6270;DHT22;3168;51.684;6.954;2023-12-20T14:33:21;7.40;99.90
6270;DHT22;3168;51.684;6.954;2023-12-20T14:35:47;7.40;99.90
6270;DHT22;3168;51.684;6.954;2023-12-20T14:38:14;7.40;99.90
6270;DHT22;3168;51.684;6.954;2023-12-20T14:40:40;7.40;99.90
6270;DHT22;3168;51.684;6.954;2023-12-20T14:43:07;7.30;99.90
6270;DHT22;3168;51.684;6.954;2023-12-20T14:45:32;7.30;99.90
6270;DHT22;3168;51.684;6.954;2023-12-20T14:47:59;7.30;99.90
6270;DHT22;3168;51.684;6.954;2023-12-20T14:50:25;7.40;99.90
6270;DHT22;3168;51.684;6.954;2023-12-20T14:52:51;7.30;99.90
6270;DHT22;3168;51.684;6.954;2023-12-20T14:55:18;7.30;1.00
6270;DHT22;3168;51.684;6.954;2023-12-20T14:57:44;7.40;99.90
6270;DHT22;3168;51.684;6.954;2023-12-20T15:00:10;7.40;99.90
6270;DHT22;3168;51.684;6.954;2023-12-20T15:02:36;7.40;1.00
6270;DHT22;3168;51.684;6.954;2023-12-20T15:05:02;7.30;1.00
6270;DHT22;3168;51.684;6.954;2023-12-20T15:07:28;7.30;1.00
6270;DHT22;3168;51.684;6.954;2023-12-20T15:09:54;7.30;1.00
6270;DHT22;3168;51.684;6.954;2023-12-20T15:12:20;7.30;1.00
6270;DHT22;3168;51.684;6.954;2023-12-20T15:14:46;7.30;1.00
6270;DHT22;3168;51.684;6.954;2023-12-20T15:17:12;7.30;1.00
6270;DHT22;3168;51.684;6.954;2023-12-20T15:19:39;7.30;1.00
6270;DHT22;3168;51.684;6.954;2023-12-20T15:22:05;7.30;1.00
6270;DHT22;3168;51.684;6.954;2023-12-20T15:24:32;7.30;1.00
6270;DHT22;3168;51.684;6.954;2023-12-20T15:26:58;7.30;1.00
6270;DHT22;3168;51.684;6.954;2023-12-20T15:29:24;7.30;1.00
6270;DHT22;3168;51.684;6.954;2023-12-20T15:31:50;7.30;1.00
6270;DHT22;3168;51.684;6.954;2023-12-20T15:34:16;7.30;1.00
6270;DHT22;3168;51.684;6.954;2023-12-20T15:36:43;7.30;1.00
6270;DHT22;3168;51.684;6.954;2023-12-20T15:39:09;7.30;1.00
6270;DHT22;3168;51.684;6.954;2023-12-20T15:41:35;7.30;1.00
6270;DHT22;3168;51.684;6.954;2023-12-20T15:44:02;7.30;1.00
6270;DHT22;3168;51.684;6.954;2023-12-20T15:46:28;7.40;1.00
6270;DHT22;3168;51.684;6.954;2023-12-20T15:48:54;7.40;1.00
6270;DHT22;3168;51.684;6.954;2023-12-20T15:51:21;7.40;1.00
6270;DHT22;3168;51.684;6.954;2023-12-20T15:53:46;7.40;1.00
6270;DHT22;3168;51.684;6.954;2023-12-20T15:56:12;7.40;1.00
6270;DHT22;3168;51.684;6.954;2023-12-20T15:58:38;7.40;1.00
6270;DHT22;3168;51.684;6.954;2023-12-20T16:01:04;7.40;99.90
6270;DHT22;3168;51.684;6.954;2023-12-20T16:03:30;7.50;99.90
6270;DHT22;3168;51.684;6.954;2023-12-20T16:05:56;7.50;99.90
6270;DHT22;3168;51.684;6.954;2023-12-20T16:08:22;7.50;99.90
6270;DHT22;3168;51.684;6.954;2023-12-20T16:10:49;7.40;99.90
6270;DHT22;3168;51.684;6.954;2023-12-20T16:13:15;7.50;99.90
6270;DHT22;3168;51.684;6.954;2023-12-20T16:15:41;7.50;99.90
6270;DHT22;3168;51.684;6.954;2023-12-20T16:18:07;7.50;99.90
6270;DHT22;3168;51.684;6.954;2023-12-20T16:20:33;7.50;99.90